Time;durP1;ratioP1;P1;durP2;ratioP2;P2;SDS_P1;SDS_P2;PMS_P1;PMS_P2;Temp;Humidity;BMP_temperature;BMP_pressure;BME280_temperature;BME280_humidity;BME280_pressure;Samples;Min_cycle;Max_cycle;Signal;HPM_P1;HPM_P2
2022/01/15 00:01:03;;;;;;;56.63;17.45;;;6.70;99.90;;;;;;4973610;28;20126;-73
2022/01/15 00:03:29;;;;;;;99.90;19.58;;;6.60;99.90;;;;;;4988493;28;20504;-72
2022/01/15 00:05:57;;;;;;;82.10;19.10;;;6.60;99.90;;;;;;4990128;28;20089;-73
2022/01/15 00:08:23;;;;;;;69.18;18.13;;;6.70;99.90;;;;;;4969661;28;20397;-73
2022/01/15 00:10:50;;;;;;;47.40;17.00;;;6.70;99.90;;;;;;4992298;28;20042;-72
2022/01/15 00:13:28;;;;;;;55.03;17.23;;;6.70;99.90;;;;;;4989266;28;20034;-73
2022/01/15 00:16:05;;;;;;;51.97;16.73;;;6.60;99.90;;;;;;4973416;28;20061;-73
2022/01/15 00:19:00;;;;;;;50.22;16.25;;;6.70;99.90;;;;;;4979168;28;20038;-73
2022/01/15 00:21:26;;;;;;;54.22;17.00;;;6.70;99.90;;;;;;4993034;28;20512;-74
2022/01/15 00:23:52;;;;;;;74.20;17.70;;;6.60;99.90;;;;;;4995031;28;20061;-74
2022/01/15 00:26:18;;;;;;;37.85;15.25;;;6.60;99.90;;;;;;4996715;28;20165;-74
2022/01/15 00:28:44;;;;;;;43.78;15.50;;;6.60;99.90;;;;;;4995027;28;20593;-74
2022/01/15 00:31:09;;;;;;;42.03;15.90;;;6.60;99.90;;;;;;4994099;28;20461;-74
2022/01/15 00:33:35;;;;;;;37.08;14.60;;;6.60;99.90;;;;;;4992165;28;20049;-74
2022/01/15 00:36:01;;;;;;;34.65;14.73;;;6.60;99.90;;;;;;4992321;28;20045;-74
2022/01/15 00:38:27;;;;;;;41.25;15.57;;;6.60;99.90;;;;;;4977358;28;20054;-74
2022/01/15 00:40:52;;;;;;;37.22;14.02;;;6.60;99.90;;;;;;4994966;28;20493;-74
2022/01/15 00:43:18;;;;;;;39.83;14.32;;;6.60;99.90;;;;;;4994302;28;20038;-74
2022/01/15 00:45:45;;;;;;;36.40;14.52;;;6.60;99.90;;;;;;4978031;28;20039;-74
2022/01/15 00:48:10;;;;;;;46.33;16.38;;;6.60;99.90;;;;;;4991949;28;20054;-74
2022/01/15 00:50:36;;;;;;;43.78;15.10;;;6.70;99.90;;;;;;4993159;28;20479;-74
2022/01/15 00:53:02;;;;;;;39.63;14.35;;;6.60;99.90;;;;;;4994103;28;20498;-74
2022/01/15 00:55:28;;;;;;;51.15;16.08;;;6.60;99.90;;;;;;4996189;28;20034;-74
2022/01/15 00:57:53;;;;;;;46.33;16.13;;;6.60;99.90;;;;;;4978208;28;20084;-74
2022/01/15 01:00:22;;;;;;;58.00;17.33;;;6.60;99.90;;;;;;4979029;28;20045;-74
2022/01/15 01:02:49;;;;;;;55.30;16.13;;;6.60;99.90;;;;;;4993624;28;20066;-74
2022/01/15 01:05:15;;;;;;;60.13;16.38;;;6.60;99.90;;;;;;4976753;28;20053;-74
2022/01/15 01:07:42;;;;;;;37.67;15.00;;;6.60;99.90;;;;;;4979376;28;20046;-74
2022/01/15 01:10:47;;;;;;;44.00;15.73;;;6.60;99.90;;;;;;4994381;28;20049;-74
2022/01/15 01:13:16;;;;;;;52.47;16.02;;;6.60;99.90;;;;;;4971195;28;20046;-73
2022/01/15 01:23:36;;;;;;;42.35;14.73;;;6.50;99.90;;;;;;4962455;28;20038;-74
2022/01/15 01:26:24;;;;;;;42.55;14.85;;;6.50;99.90;;;;;;4977260;28;20077;-74
2022/01/15 01:29:01;;;;;;;51.47;15.57;;;6.50;99.90;;;;;;4994181;28;20034;-74
2022/01/15 01:31:37;;;;;;;36.95;13.82;;;6.50;99.90;;;;;;4982094;28;20074;-75
2022/01/15 01:34:14;;;;;;;48.00;15.00;;;6.50;99.90;;;;;;5050602;22;20583;-78
2022/01/15 01:36:58;;;;;;;49.70;15.63;;;6.60;99.90;;;;;;5019283;28;20041;-78
2022/01/15 01:40:15;;;;;;;62.15;18.40;;;6.50;99.90;;;;;;5031046;28;20124;-78
2022/01/15 01:45:25;;;;;;;63.58;18.45;;;6.50;99.90;;;;;;5015693;28;20052;-78
2022/01/15 01:47:50;;;;;;;49.03;15.90;;;6.50;99.90;;;;;;5011496;28;20423;-78
2022/01/15 01:50:18;;;;;;;77.97;18.77;;;6.40;99.90;;;;;;5006962;28;20037;-78
2022/01/15 01:52:48;;;;;;;47.20;17.17;;;6.50;99.90;;;;;;5008225;28;20041;-78
2022/01/15 01:55:15;;;;;;;72.85;19.05;;;6.50;99.90;;;;;;5011579;28;20048;-79
2022/01/15 01:57:42;;;;;;;78.55;20.15;;;6.50;99.90;;;;;;5007543;28;20042;-78
2022/01/15 02:00:11;;;;;;;44.45;17.10;;;6.50;99.90;;;;;;4993827;28;20104;-78
2022/01/15 02:02:37;;;;;;;51.72;18.08;;;6.50;99.90;;;;;;4992900;28;20084;-78
2022/01/15 02:05:03;;;;;;;49.83;18.52;;;6.50;99.90;;;;;;5010981;28;20117;-77
2022/01/15 02:07:29;;;;;;;66.45;19.48;;;6.50;99.90;;;;;;5008120;28;20029;-78
2022/01/15 02:09:57;;;;;;;67.18;19.30;;;6.50;99.90;;;;;;4996401;28;20046;-79
2022/01/15 02:12:23;;;;;;;85.75;20.60;;;6.40;99.90;;;;;;5009518;28;20483;-78
2022/01/15 02:14:50;;;;;;;72.35;19.92;;;6.50;99.90;;;;;;5007365;28;20041;-78
2022/01/15 02:17:19;;;;;;;53.63;18.35;;;6.50;99.90;;;;;;5012147;28;20045;-78
2022/01/15 02:20:11;;;;;;;66.93;19.70;;;6.50;99.90;;;;;;5023524;28;20468;-78
2022/01/15 02:25:21;;;;;;;54.67;18.15;;;6.40;99.90;;;;;;5008202;28;20522;-78
2022/01/15 02:27:46;;;;;;;62.67;19.10;;;6.50;99.90;;;;;;5011742;28;20034;-78
2022/01/15 02:30:13;;;;;;;44.88;17.45;;;6.40;99.90;;;;;;5001575;28;20049;-78
2022/01/15 02:32:38;;;;;;;53.08;17.77;;;6.40;99.90;;;;;;5010087;28;20473;-78
2022/01/15 02:35:05;;;;;;;47.38;16.55;;;6.40;99.90;;;;;;5011622;28;20045;-78
2022/01/15 02:37:30;;;;;;;38.58;16.20;;;6.40;99.90;;;;;;5009439;28;20839;-78
2022/01/15 02:39:57;;;;;;;63.05;18.38;;;6.50;99.90;;;;;;4994790;28;20045;-78
2022/01/15 02:42:26;;;;;;;54.10;18.17;;;6.50;99.90;;;;;;4992030;28;21834;-78
2022/01/15 02:44:59;;;;;;;56.67;16.98;;;6.50;99.90;;;;;;5009320;28;20476;-78
2022/01/15 02:50:09;;;;;;;40.78;15.00;;;6.50;99.90;;;;;;4990352;28;20033;-78
2022/01/15 02:52:35;;;;;;;48.05;16.90;;;6.40;99.90;;;;;;5010921;28;20561;-78
2022/01/15 02:55:01;;;;;;;38.05;15.95;;;6.40;99.90;;;;;;4994317;28;20128;-77
2022/01/15 02:57:26;;;;;;;34.00;15.13;;;6.50;99.90;;;;;;4992586;28;20057;-77
2022/01/15 02:59:52;;;;;;;62.67;18.27;;;6.50;99.90;;;;;;5006789;28;20038;-78
2022/01/15 03:02:18;;;;;;;45.65;16.75;;;6.50;99.90;;;;;;5006841;28;20052;-78
2022/01/15 03:04:43;;;;;;;49.50;16.63;;;6.50;99.90;;;;;;5011582;28;20038;-78
2022/01/15 03:07:09;;;;;;;49.90;16.48;;;6.50;99.90;;;;;;4992509;28;20049;-77
2022/01/15 03:09:34;;;;;;;54.88;16.50;;;6.50;99.90;;;;;;5027744;28;20037;-77
2022/01/15 03:12:02;;;;;;;57.78;16.02;;;6.50;99.90;;;;;;5009382;28;20088;-77
2022/01/15 03:14:31;;;;;;;43.13;15.38;;;6.40;99.90;;;;;;5013366;28;20395;-78
2022/01/15 03:16:57;;;;;;;39.95;15.18;;;6.40;99.90;;;;;;5014989;28;20072;-77
2022/01/15 03:19:23;;;;;;;42.72;15.32;;;6.40;99.90;;;;;;5013689;28;20077;-78
2022/01/15 03:21:48;;;;;;;42.60;14.73;;;6.40;99.90;;;;;;5015714;28;20083;-78
2022/01/15 03:24:14;;;;;;;35.53;14.55;;;6.40;99.90;;;;;;5006673;28;20037;-78
2022/01/15 03:26:39;;;;;;;40.42;14.90;;;6.40;99.90;;;;;;5012882;28;20084;-77
2022/01/15 03:29:05;;;;;;;33.42;13.77;;;6.40;99.90;;;;;;5008369;28;20120;-77
2022/01/15 03:31:31;;;;;;;40.85;14.07;;;6.40;99.90;;;;;;5014375;28;20506;-78
2022/01/15 03:33:56;;;;;;;39.67;14.27;;;6.40;99.90;;;;;;5026670;28;20037;-77
2022/01/15 03:36:22;;;;;;;40.72;15.55;;;6.40;99.90;;;;;;5011183;28;20042;-78
2022/01/15 03:38:48;;;;;;;34.50;14.23;;;6.40;99.90;;;;;;4993020;28;20038;-77
2022/01/15 03:41:13;;;;;;;44.42;15.15;;;6.30;99.90;;;;;;4995647;28;20086;-77
2022/01/15 03:43:41;;;;;;;52.88;16.70;;;6.40;99.90;;;;;;5014666;28;20037;-77
2022/01/15 03:46:07;;;;;;;45.70;15.63;;;6.30;99.90;;;;;;4989590;28;20036;-77
2022/01/15 03:48:33;;;;;;;57.33;16.65;;;6.30;99.90;;;;;;5013162;28;20471;-77
2022/01/15 03:50:59;;;;;;;42.47;15.80;;;6.30;99.90;;;;;;4992023;28;20041;-78
2022/01/15 03:53:25;;;;;;;40.03;14.90;;;6.30;99.90;;;;;;5011405;28;20723;-77
2022/01/15 03:55:51;;;;;;;44.38;15.35;;;6.30;99.90;;;;;;4996197;28;20048;-77
2022/01/15 03:58:18;;;;;;;52.67;15.88;;;6.30;99.90;;;;;;5003286;28;20048;-77
2022/01/15 04:00:43;;;;;;;40.53;14.32;;;6.30;99.90;;;;;;5011762;28;20137;-78
2022/01/15 04:03:09;;;;;;;43.38;14.93;;;6.30;99.90;;;;;;4982156;28;20195;-77
2022/01/15 04:05:35;;;;;;;40.25;14.13;;;6.30;99.90;;;;;;5014570;28;20044;-78
2022/01/15 04:08:01;;;;;;;33.30;13.18;;;6.30;99.90;;;;;;5012386;28;20041;-79
2022/01/15 04:10:26;;;;;;;39.22;14.00;;;6.30;99.90;;;;;;5011650;28;20033;-78
2022/01/15 04:12:52;;;;;;;36.30;14.20;;;6.30;99.90;;;;;;5012732;28;20117;-78
2022/01/15 04:15:18;;;;;;;31.77;13.27;;;6.30;99.90;;;;;;5014198;28;20037;-78
2022/01/15 04:17:46;;;;;;;35.80;13.20;;;6.30;99.90;;;;;;5030015;28;20056;-78
2022/01/15 04:20:13;;;;;;;40.60;14.60;;;6.30;99.90;;;;;;5014879;28;20091;-78
2022/01/15 04:22:40;;;;;;;45.80;14.55;;;6.30;99.90;;;;;;4997094;28;20044;-78
2022/01/15 04:25:06;;;;;;;43.10;13.52;;;6.30;99.90;;;;;;5028095;28;20041;-78
2022/01/15 04:27:32;;;;;;;52.33;14.35;;;6.30;99.90;;;;;;4992010;28;20407;-77
2022/01/15 04:30:02;;;;;;;35.63;13.68;;;6.30;99.90;;;;;;5011442;28;20038;-78
2022/01/15 04:32:28;;;;;;;38.28;13.43;;;6.30;99.90;;;;;;5012612;28;20041;-78
2022/01/15 04:34:53;;;;;;;59.42;15.60;;;6.30;99.90;;;;;;5011596;28;20037;-77
2022/01/15 04:37:22;;;;;;;44.33;14.52;;;6.30;99.90;;;;;;5012100;28;20652;-77
2022/01/15 04:39:48;;;;;;;32.53;13.75;;;6.30;99.90;;;;;;5012414;28;20045;-78
2022/01/15 04:42:15;;;;;;;40.75;13.90;;;6.30;99.90;;;;;;4992618;28;20128;-78
2022/01/15 04:44:42;;;;;;;29.17;13.00;;;6.30;99.90;;;;;;4996506;28;20033;-77
2022/01/15 04:47:08;;;;;;;29.42;12.95;;;6.30;99.90;;;;;;5013458;28;20045;-78
2022/01/15 04:49:34;;;;;;;36.38;13.05;;;6.30;99.90;;;;;;5011297;28;20037;-77
2022/01/15 04:52:00;;;;;;;27.92;12.43;;;6.20;99.90;;;;;;5012405;28;20033;-77
2022/01/15 04:54:26;;;;;;;45.17;14.07;;;6.20;99.90;;;;;;5012891;28;20049;-78
2022/01/15 04:56:52;;;;;;;31.00;11.80;;;6.20;99.90;;;;;;5011396;28;20033;-77
2022/01/15 04:59:17;;;;;;;29.15;12.05;;;6.30;99.90;;;;;;5010775;28;20180;-78
2022/01/15 05:01:43;;;;;;;32.47;11.93;;;6.30;99.90;;;;;;4993939;28;20033;-77
2022/01/15 05:04:08;;;;;;;25.52;11.27;;;6.30;99.90;;;;;;4995281;28;20033;-78
2022/01/15 05:06:34;;;;;;;32.20;11.43;;;6.20;99.90;;;;;;5008093;28;20033;-77
2022/01/15 05:09:07;;;;;;;27.80;10.55;;;6.20;99.90;;;;;;5010073;28;20052;-77
2022/01/15 05:11:55;;;;;;;22.77;10.00;;;6.20;99.90;;;;;;5009590;28;20560;-77
2022/01/15 05:14:20;;;;;;;24.08;9.88;;;6.20;99.90;;;;;;5010521;28;20071;-77
2022/01/15 05:16:46;;;;;;;23.92;9.65;;;6.20;99.90;;;;;;5017220;28;20085;-77
2022/01/15 05:19:12;;;;;;;23.60;9.70;;;6.20;99.90;;;;;;5004747;28;20041;-78
2022/01/15 05:21:38;;;;;;;18.40;9.48;;;6.20;99.90;;;;;;4992025;28;20034;-77
2022/01/15 05:24:05;;;;;;;22.35;9.68;;;6.20;99.90;;;;;;5013584;28;20034;-78
2022/01/15 05:26:31;;;;;;;23.98;9.52;;;6.20;99.90;;;;;;5009302;28;20057;-78
2022/01/15 05:28:57;;;;;;;22.42;10.10;;;6.20;99.90;;;;;;5016316;28;20029;-78
2022/01/15 05:31:24;;;;;;;19.38;9.15;;;6.20;99.90;;;;;;5009022;28;20120;-78
2022/01/15 05:33:50;;;;;;;16.05;8.30;;;6.20;99.90;;;;;;5013938;28;20045;-78
2022/01/15 05:36:16;;;;;;;17.85;8.88;;;6.20;99.90;;;;;;5011560;28;20096;-78
2022/01/15 05:38:42;;;;;;;11.88;6.97;;;6.10;99.90;;;;;;4991100;28;20130;-78
2022/01/15 05:41:07;;;;;;;11.13;6.13;;;6.10;99.90;;;;;;5007228;28;20037;-78
2022/01/15 05:43:33;;;;;;;11.05;6.63;;;6.10;99.90;;;;;;5011304;28;20039;-77
2022/01/15 05:45:59;;;;;;;15.70;8.13;;;6.10;99.90;;;;;;5008222;28;20041;-77
2022/01/15 05:48:24;;;;;;;17.02;8.13;;;6.10;99.90;;;;;;4992154;28;20037;-77
2022/01/15 05:50:50;;;;;;;21.67;8.52;;;6.10;99.90;;;;;;5011572;28;20071;-77
2022/01/15 05:53:16;;;;;;;18.63;8.32;;;6.10;99.90;;;;;;5000280;28;20041;-77
2022/01/15 05:55:41;;;;;;;15.80;7.55;;;6.10;99.90;;;;;;5010866;28;20033;-77
2022/01/15 05:58:07;;;;;;;15.35;7.95;;;6.10;99.90;;;;;;5010724;28;20037;-77
2022/01/15 06:00:34;;;;;;;13.45;7.65;;;6.10;99.90;;;;;;5010938;28;20064;-77
2022/01/15 06:02:59;;;;;;;13.73;7.68;;;6.10;99.90;;;;;;5014974;28;20045;-78
2022/01/15 06:05:25;;;;;;;14.07;7.47;;;6.10;99.90;;;;;;4993017;28;20037;-78
2022/01/15 06:07:50;;;;;;;16.02;7.68;;;6.00;99.90;;;;;;5008698;28;20030;-77
2022/01/15 06:10:16;;;;;;;14.95;8.00;;;6.10;99.90;;;;;;5011687;28;20041;-77
2022/01/15 06:12:44;;;;;;;15.02;8.27;;;6.10;99.90;;;;;;5010143;28;20056;-77
2022/01/15 06:15:11;;;;;;;15.68;7.97;;;6.10;99.90;;;;;;5012122;28;20046;-77
2022/01/15 06:17:37;;;;;;;15.93;8.30;;;6.00;99.90;;;;;;5007559;28;20030;-77
2022/01/15 06:20:04;;;;;;;15.13;8.32;;;6.00;99.90;;;;;;5009021;28;20049;-77
2022/01/15 06:22:30;;;;;;;12.80;7.50;;;6.00;99.90;;;;;;5014745;28;20087;-77
2022/01/15 06:24:55;;;;;;;10.88;6.50;;;6.00;99.90;;;;;;5008987;28;20041;-77
2022/01/15 06:27:21;;;;;;;9.30;6.25;;;6.00;99.90;;;;;;5007521;28;20136;-77
2022/01/15 06:29:47;;;;;;;11.93;7.50;;;6.00;99.90;;;;;;5000980;28;20037;-77
2022/01/15 06:32:13;;;;;;;10.95;7.28;;;5.90;99.90;;;;;;5013416;28;20574;-76
2022/01/15 06:34:39;;;;;;;11.07;7.18;;;5.90;99.90;;;;;;5008962;28;20091;-77
2022/01/15 06:37:05;;;;;;;13.35;7.50;;;5.90;99.90;;;;;;4997409;28;20416;-76
2022/01/15 06:39:33;;;;;;;11.63;6.82;;;5.90;99.90;;;;;;5009480;28;20038;-76
2022/01/15 06:41:58;;;;;;;13.30;7.75;;;5.90;99.90;;;;;;5007575;28;20038;-76
2022/01/15 06:44:24;;;;;;;10.18;6.88;;;5.90;99.90;;;;;;5010573;28;20048;-77
2022/01/15 06:46:50;;;;;;;11.52;7.00;;;5.90;99.90;;;;;;5009602;28;20140;-77
2022/01/15 06:49:15;;;;;;;11.10;6.45;;;5.90;99.90;;;;;;5028570;28;20053;-76
2022/01/15 06:51:41;;;;;;;13.35;6.95;;;5.80;99.90;;;;;;5016192;28;20172;-76
2022/01/15 06:54:07;;;;;;;11.73;7.32;;;5.80;99.90;;;;;;5001207;28;20158;-76
2022/01/15 06:56:32;;;;;;;13.38;6.97;;;5.80;99.90;;;;;;5016999;28;20033;-76
2022/01/15 06:58:59;;;;;;;10.95;6.97;;;5.80;99.90;;;;;;5017356;28;20045;-77
2022/01/15 07:01:24;;;;;;;13.75;6.82;;;5.80;99.90;;;;;;5019429;28;20091;-76
2022/01/15 07:03:50;;;;;;;10.90;7.07;;;5.80;99.90;;;;;;5009205;28;20041;-76
2022/01/15 07:06:15;;;;;;;13.80;7.15;;;5.80;99.90;;;;;;5001490;28;20041;-76
2022/01/15 07:08:41;;;;;;;11.77;7.40;;;5.80;99.90;;;;;;5013784;28;20116;-76
2022/01/15 07:11:07;;;;;;;12.18;7.43;;;5.80;99.90;;;;;;5014340;28;20483;-76
2022/01/15 07:13:33;;;;;;;11.32;7.45;;;5.80;99.90;;;;;;5013208;28;20092;-76
2022/01/15 07:15:59;;;;;;;12.10;7.47;;;5.80;99.90;;;;;;5015265;28;20045;-76
2022/01/15 07:18:25;;;;;;;14.82;8.27;;;5.80;99.90;;;;;;5010506;28;20041;-76
2022/01/15 07:20:51;;;;;;;13.43;8.02;;;5.90;99.90;;;;;;4983491;28;20538;-76
2022/01/15 07:23:18;;;;;;;14.73;8.38;;;5.80;99.90;;;;;;5013313;28;20045;-76
2022/01/15 07:25:44;;;;;;;13.73;8.57;;;5.80;99.90;;;;;;5017141;28;20484;-76
2022/01/15 07:28:09;;;;;;;15.48;8.80;;;5.80;99.90;;;;;;5014072;28;20037;-76
2022/01/15 07:30:35;;;;;;;13.55;8.00;;;5.70;99.90;;;;;;4998226;28;20042;-76
2022/01/15 07:33:02;;;;;;;14.93;8.38;;;5.80;99.90;;;;;;5023576;28;20063;-77
2022/01/15 07:35:28;;;;;;;14.18;8.32;;;5.70;99.90;;;;;;5015157;28;20514;-77
2022/01/15 07:37:54;;;;;;;12.40;8.18;;;5.70;99.90;;;;;;5000646;28;20496;-77
2022/01/15 07:40:19;;;;;;;14.18;9.02;;;5.70;99.90;;;;;;5013195;28;20416;-76
2022/01/15 07:42:45;;;;;;;13.98;9.05;;;5.70;99.90;;;;;;4993328;28;20046;-77
2022/01/15 07:45:13;;;;;;;12.45;8.40;;;5.70;99.90;;;;;;5016856;28;20041;-77
2022/01/15 07:47:40;;;;;;;15.27;9.20;;;5.70;99.90;;;;;;5015634;28;20377;-77
2022/01/15 07:50:23;;;;;;;15.10;9.23;;;5.70;99.90;;;;;;5012877;28;20450;-77
2022/01/15 07:52:54;;;;;;;14.15;8.75;;;5.70;99.90;;;;;;5009958;28;20048;-77
2022/01/15 07:55:20;;;;;;;15.38;9.15;;;5.70;99.90;;;;;;4994599;28;20042;-77
2022/01/15 07:57:46;;;;;;;15.95;9.55;;;5.70;99.90;;;;;;5018055;28;20525;-77
2022/01/15 08:00:13;;;;;;;14.52;9.30;;;5.70;99.90;;;;;;5014251;28;20065;-77
2022/01/15 08:02:39;;;;;;;14.48;9.18;;;5.70;99.90;;;;;;5015694;28;20116;-77
2022/01/15 08:05:06;;;;;;;15.00;9.30;;;5.70;99.90;;;;;;5013867;28;20045;-77
2022/01/15 08:07:31;;;;;;;15.68;9.60;;;5.70;99.90;;;;;;5032554;28;20120;-76
2022/01/15 08:09:57;;;;;;;16.05;9.68;;;5.60;99.90;;;;;;5016645;28;20136;-77
2022/01/15 08:12:23;;;;;;;18.00;10.75;;;5.60;99.90;;;;;;5008897;28;20042;-77
2022/01/15 08:14:50;;;;;;;16.80;10.27;;;5.60;99.90;;;;;;4999796;28;20041;-77
2022/01/15 08:17:16;;;;;;;17.73;10.63;;;5.60;99.90;;;;;;5013101;28;20050;-77
2022/01/15 08:19:42;;;;;;;19.42;11.70;;;5.60;99.90;;;;;;5014673;28;20034;-77
2022/01/15 08:22:07;;;;;;;20.20;11.63;;;5.60;99.90;;;;;;5012640;28;20393;-77
2022/01/15 08:24:33;;;;;;;22.08;12.52;;;5.60;99.90;;;;;;4995599;28;20460;-77
2022/01/15 08:26:59;;;;;;;21.88;12.70;;;5.60;99.90;;;;;;5015615;28;20064;-77
2022/01/15 08:29:24;;;;;;;24.80;13.60;;;5.60;99.90;;;;;;5012417;28;20048;-76
2022/01/15 08:31:50;;;;;;;23.30;13.95;;;5.60;99.90;;;;;;5006936;28;20408;-76
2022/01/15 08:34:15;;;;;;;21.83;12.38;;;5.50;99.90;;;;;;5013231;28;20514;-77
2022/01/15 08:36:41;;;;;;;28.70;14.13;;;5.60;99.90;;;;;;5015666;28;20065;-77
2022/01/15 08:39:08;;;;;;;24.98;13.52;;;5.60;99.90;;;;;;5015632;28;20509;-76
2022/01/15 08:41:34;;;;;;;25.83;14.10;;;5.60;99.90;;;;;;5015215;28;20037;-77
2022/01/15 08:44:00;;;;;;;23.38;13.68;;;5.50;99.90;;;;;;5008417;28;20142;-77
2022/01/15 08:46:26;;;;;;;23.67;14.32;;;5.50;99.90;;;;;;5015779;28;20514;-77
2022/01/15 08:48:52;;;;;;;26.80;14.82;;;5.50;99.90;;;;;;5013518;28;20052;-77
2022/01/15 08:51:17;;;;;;;24.92;14.48;;;5.50;99.90;;;;;;5012214;28;20045;-77
2022/01/15 08:53:43;;;;;;;26.42;14.80;;;5.50;99.90;;;;;;5015173;28;20403;-77
2022/01/15 08:56:09;;;;;;;25.70;15.48;;;5.50;99.90;;;;;;5014820;28;20587;-77
2022/01/15 08:58:35;;;;;;;29.33;16.17;;;5.50;99.90;;;;;;5013314;28;20458;-77
2022/01/15 09:01:01;;;;;;;29.25;16.73;;;5.50;99.90;;;;;;5014353;28;20475;-76
2022/01/15 09:03:26;;;;;;;31.65;17.00;;;5.50;99.90;;;;;;5014971;28;20033;-76
2022/01/15 09:05:52;;;;;;;31.88;16.15;;;5.50;99.90;;;;;;4997047;28;20673;-77
2022/01/15 09:08:24;;;;;;;33.80;16.98;;;5.50;99.90;;;;;;5014238;28;20384;-76
2022/01/15 09:10:53;;;;;;;34.97;16.48;;;5.40;99.90;;;;;;5006793;28;20083;-77
2022/01/15 09:13:19;;;;;;;33.33;16.88;;;5.40;99.90;;;;;;5014566;28;20087;-76
2022/01/15 09:15:45;;;;;;;30.10;16.38;;;5.40;99.90;;;;;;5012500;28;20040;-77
2022/01/15 09:18:11;;;;;;;29.45;16.15;;;5.50;99.90;;;;;;5014522;28;20037;-77
2022/01/15 09:20:36;;;;;;;29.17;17.00;;;5.40;99.90;;;;;;5013487;28;20099;-77
2022/01/15 09:23:02;;;;;;;28.85;15.82;;;5.40;99.90;;;;;;5014552;28;20034;-77
2022/01/15 09:25:28;;;;;;;31.23;16.30;;;5.50;99.90;;;;;;5014399;28;20041;-77
2022/01/15 09:30:40;;;;;;;27.50;15.15;;;5.50;99.90;;;;;;5012497;28;20037;-77
2022/01/15 09:33:06;;;;;;;28.85;16.23;;;5.50;99.90;;;;;;5014763;28;20063;-76
2022/01/15 09:35:33;;;;;;;32.67;16.42;;;5.40;99.90;;;;;;5021497;28;20053;-77
2022/01/15 09:37:59;;;;;;;33.47;17.73;;;5.40;99.90;;;;;;5009739;28;20040;-77
2022/01/15 09:40:26;;;;;;;35.47;18.33;;;5.40;99.90;;;;;;5000390;28;20052;-77
2022/01/15 09:42:53;;;;;;;33.42;17.33;;;5.40;99.90;;;;;;5000229;28;20040;-76
2022/01/15 09:45:22;;;;;;;37.30;18.98;;;5.40;99.90;;;;;;5011187;28;20034;-76
2022/01/15 09:48:08;;;;;;;37.85;18.95;;;5.40;99.90;;;;;;5028288;28;20053;-78
2022/01/15 09:50:43;;;;;;;37.85;20.02;;;5.40;99.90;;;;;;5009104;28;20069;-77
2022/01/15 09:53:10;;;;;;;40.72;19.75;;;5.40;99.90;;;;;;5023658;28;20033;-77
2022/01/15 09:55:37;;;;;;;37.65;18.33;;;5.40;99.90;;;;;;5013163;28;20045;-77
2022/01/15 09:58:03;;;;;;;38.20;19.02;;;5.40;99.90;;;;;;5012576;28;20037;-77
2022/01/15 10:00:30;;;;;;;36.15;18.92;;;5.40;99.90;;;;;;4995524;28;20077;-76
2022/01/15 10:02:56;;;;;;;30.60;17.67;;;5.40;99.90;;;;;;5014120;28;20080;-77
2022/01/15 10:05:22;;;;;;;33.63;17.73;;;5.40;99.90;;;;;;5011704;28;20073;-77
2022/01/15 10:08:13;;;;;;;32.65;18.15;;;5.40;99.90;;;;;;5008789;28;20041;-77
2022/01/15 10:10:40;;;;;;;31.75;17.40;;;5.40;99.90;;;;;;4995575;28;20048;-77
2022/01/15 10:13:28;;;;;;;29.40;16.25;;;5.40;99.90;;;;;;5012349;28;20041;-82
2022/01/15 10:16:00;;;;;;;27.63;15.23;;;5.40;99.90;;;;;;5012314;28;20073;-77
2022/01/15 10:18:29;;;;;;;28.27;16.53;;;5.40;99.90;;;;;;5015218;28;20571;-76
2022/01/15 10:21:08;;;;;;;28.65;15.80;;;5.40;99.90;;;;;;5005134;28;20477;-77
2022/01/15 10:23:53;;;;;;;28.10;15.23;;;5.40;99.90;;;;;;5015787;28;20048;-75
2022/01/15 10:26:22;;;;;;;27.20;14.82;;;5.40;99.90;;;;;;5008894;28;20037;-76
2022/01/15 10:28:48;;;;;;;24.50;15.40;;;5.40;99.90;;;;;;4990395;28;20494;-77
2022/01/15 10:31:19;;;;;;;27.30;15.35;;;5.40;99.90;;;;;;5009514;28;20073;-77
2022/01/15 10:33:45;;;;;;;22.65;14.82;;;5.40;99.90;;;;;;5008636;28;20037;-77
2022/01/15 10:36:22;;;;;;;25.17;15.52;;;5.40;99.90;;;;;;5009492;28;20102;-76
2022/01/15 10:38:47;;;;;;;24.05;15.32;;;5.40;99.90;;;;;;5006822;28;20060;-76
2022/01/15 10:41:30;;;;;;;28.65;16.58;;;5.40;99.90;;;;;;5004065;28;20050;-76
2022/01/15 10:43:56;;;;;;;;;;;5.40;99.90;;;;;;4988808;28;20036;-76
2022/01/15 10:46:35;;;;;;;29.85;16.48;;;5.40;99.90;;;;;;5005834;28;19917;-77
2022/01/15 10:49:20;;;;;;;29.88;18.08;;;5.30;99.90;;;;;;5003421;28;20030;-77
2022/01/15 10:52:02;;;;;;;29.58;17.58;;;5.30;99.90;;;;;;5008736;28;20045;-76
2022/01/15 10:54:28;;;;;;;31.88;18.10;;;5.30;99.90;;;;;;5011514;28;20041;-77
2022/01/15 10:57:08;;;;;;;31.63;18.67;;;5.30;99.90;;;;;;5005147;28;20098;-77
2022/01/15 10:59:35;;;;;;;33.40;19.30;;;5.40;99.90;;;;;;5025549;28;20064;-77
2022/01/15 11:02:17;;;;;;;29.10;17.98;;;5.30;99.90;;;;;;4974940;28;20042;-76
2022/01/15 11:04:43;;;;;;;;;;;5.30;99.90;;;;;;5011583;28;20037;-77
2022/01/15 11:07:14;;;;;;;29.73;18.55;;;5.30;99.90;;;;;;5016307;28;19943;-77
2022/01/15 11:09:43;;;;;;;31.17;18.85;;;5.30;99.90;;;;;;4988924;28;20045;-77
2022/01/15 11:12:10;;;;;;;30.70;18.98;;;5.30;99.90;;;;;;5010551;28;20049;-77
2022/01/15 11:14:36;;;;;;;31.83;19.70;;;5.20;99.90;;;;;;4991482;28;20091;-77
2022/01/15 11:17:03;;;;;;;27.73;17.80;;;5.30;99.90;;;;;;5013137;28;20059;-77
2022/01/15 11:19:34;;;;;;;33.30;19.02;;;5.30;99.90;;;;;;5006517;28;20042;-77
2022/01/15 11:22:02;;;;;;;30.67;19.67;;;5.30;99.90;;;;;;5012440;28;20068;-77
2022/01/15 11:24:27;;;;;;;32.97;19.20;;;5.30;99.90;;;;;;4977922;28;20030;-77
2022/01/15 11:26:57;;;;;;;31.30;20.27;;;5.30;99.90;;;;;;4998760;28;20084;-77
2022/01/15 11:29:24;;;;;;;28.33;18.23;;;5.30;99.90;;;;;;5008983;28;20044;-77
2022/01/15 11:31:58;;;;;;;29.50;18.45;;;5.30;99.90;;;;;;5009092;28;20037;-77
2022/01/15 11:34:25;;;;;;;31.02;18.52;;;5.30;99.90;;;;;;5005855;28;20045;-77
2022/01/15 11:36:52;;;;;;;29.42;18.27;;;5.30;99.90;;;;;;5014109;28;20050;-77
2022/01/15 11:39:33;;;;;;;27.48;17.75;;;5.30;99.90;;;;;;5006871;28;20064;-76
2022/01/15 11:42:01;;;;;;;28.95;18.63;;;5.30;99.90;;;;;;5000687;28;20034;-76
2022/01/15 11:44:31;;;;;;;24.85;16.77;;;5.30;99.90;;;;;;5016042;28;20033;-76
2022/01/15 11:47:00;;;;;;;26.60;17.17;;;5.30;99.90;;;;;;5014529;28;20069;-76
2022/01/15 11:49:30;;;;;;;27.50;17.77;;;5.30;99.90;;;;;;5021368;28;20120;-77
2022/01/15 11:52:14;;;;;;;27.70;17.80;;;5.30;99.90;;;;;;5021380;28;20041;-77
2022/01/15 11:54:40;;;;;;;26.70;17.48;;;5.20;99.90;;;;;;5007930;28;20582;-76
2022/01/15 11:57:23;;;;;;;30.27;17.98;;;5.20;99.90;;;;;;5000060;28;20080;-76
2022/01/15 12:00:17;;;;;;;30.45;18.30;;;5.20;99.90;;;;;;4999665;28;20561;-76
2022/01/15 12:03:05;;;;;;;26.63;17.15;;;5.20;99.90;;;;;;5014044;28;20033;-76
2022/01/15 12:05:36;;;;;;;29.73;18.35;;;5.20;99.90;;;;;;4994149;28;20369;-77
2022/01/15 12:08:02;;;;;;;31.52;18.73;;;5.20;99.90;;;;;;5016109;28;20120;-77
2022/01/15 12:10:49;;;;;;;30.35;17.65;;;5.20;99.90;;;;;;5011413;28;20125;-76
2022/01/15 12:13:26;;;;;;;31.20;18.00;;;5.30;99.90;;;;;;5015053;28;20194;-76
2022/01/15 12:16:17;;;;;;;32.47;19.33;;;5.30;99.90;;;;;;5010718;28;20116;-77
2022/01/15 12:18:48;;;;;;;30.20;18.52;;;5.20;99.90;;;;;;5016050;28;20040;-77
2022/01/15 12:21:44;;;;;;;31.20;19.35;;;5.30;99.90;;;;;;4996274;28;20048;-76
2022/01/15 12:24:39;;;;;;;34.60;20.25;;;5.30;99.90;;;;;;4997364;28;20449;-77
2022/01/15 12:27:09;;;;;;;33.25;19.83;;;5.30;99.90;;;;;;5007403;28;20038;-77
2022/01/15 12:29:36;;;;;;;34.45;20.98;;;5.30;99.90;;;;;;5014461;28;20033;-77
2022/01/15 12:32:01;;;;;;;35.42;21.60;;;5.20;99.90;;;;;;5014642;28;20060;-77
2022/01/15 12:34:28;;;;;;;39.47;22.58;;;5.20;99.90;;;;;;5008532;28;20041;-76
2022/01/15 12:36:57;;;;;;;41.00;23.58;;;5.20;99.90;;;;;;5012324;28;20033;-76
2022/01/15 12:39:37;;;;;;;43.00;23.88;;;5.20;99.90;;;;;;4997593;28;20060;-76
2022/01/15 12:42:08;;;;;;;40.00;23.17;;;5.20;99.90;;;;;;5010663;28;20073;-76
2022/01/15 12:44:46;;;;;;;40.17;23.58;;;5.20;99.90;;;;;;5010449;28;20087;-76
2022/01/15 12:47:13;;;;;;;39.15;22.73;;;5.20;99.90;;;;;;5006976;28;20064;-76
2022/01/15 12:49:45;;;;;;;39.38;23.45;;;5.20;99.90;;;;;;4999414;28;20392;-76
2022/01/15 12:52:13;;;;;;;44.53;23.58;;;5.20;99.90;;;;;;5007738;28;20038;-76
2022/01/15 12:54:38;;;;;;;41.85;23.35;;;5.10;99.90;;;;;;5010688;28;20076;-76
2022/01/15 12:57:05;;;;;;;43.97;25.00;;;5.20;99.90;;;;;;5008247;28;20065;-76
2022/01/15 12:59:33;;;;;;;46.15;25.35;;;5.20;99.90;;;;;;5011531;28;20069;-76
2022/01/15 13:02:02;;;;;;;50.83;25.98;;;5.20;99.90;;;;;;5010687;28;20410;-75
2022/01/15 13:04:28;;;;;;;44.80;24.70;;;5.20;99.90;;;;;;5028079;28;20034;-76
2022/01/15 13:06:58;;;;;;;45.97;24.75;;;5.20;99.90;;;;;;4991386;28;20040;-76